Vilanova de Sau





Hora UTC 02:50
Temperatura 15.9 ºC
Humitat 46.3 %
Pressió 1007.9 hPa
Pluja 0.0 mm
Velocitat vent 2.0 km/h
Direcció vent WSW
Radiació solar 0.0 W/m²

Dades diàries 2022-05-23



Hora UTC (hivern +1h; estiu +2h)
Temperatura (ºC) Humitat (%) Pressió (hPa) Velocitat vent (km/h) Precipitació (mm) Radiació solar (W/m²)
Hora UTC Aire Humitat Pressió Vel. Dir. Vel. Max Dir. Intent. màx 5 min. Rad. Sol.
00:05 17.9 39.0 1009.5 0.0 NNE 0.0 SW 0.0 0.0
00:10 17.7 39.3 1009.4 2.6 WSW 6.1 WSW 0.0 0.0
00:15 17.6 38.7 1009.5 3.7 SW 8.8 SW 0.0 0.0
00:20 17.7 39.2 1009.6 2.7 SW 6.1 WSW 0.0 0.0
00:25 17.9 38.3 1009.6 2.1 WSW 6.1 WSW 0.0 0.0
00:30 18.2 38.5 1009.4 0.6 SSE 6.1 SSE 0.0 0.0
00:35 18.3 39.6 1009.3 0.9 W 6.1 SW 0.0 0.0
00:40 18.3 39.0 1009.2 2.3 WNW 6.1 N 0.0 0.0
00:45 18.3 39.1 1009.1 1.0 W 6.1 WSW 0.0 0.0
00:50 18.3 39.0 1008.9 3.4 WSW 6.1 SW 0.0 0.0
00:55 18.4 39.3 1008.9 1.1 SSW 6.1 SSW 0.0 0.0
01:00 18.5 36.8 1008.6 3.1 NW 6.1 WSW 0.0 0.0
01:05 18.7 36.3 1008.5 5.4 W 11.5 W 0.0 0.0
01:10 19.1 34.1 1007.9 8.2 W 16.9 NNE 0.0 0.0
01:15 19.4 34.8 1008.4 6.3 SSE 11.5 SSW 0.0 0.0
01:20 18.8 36.4 1008.8 4.7 SW 11.5 WSW 0.0 0.0
01:25 19.8 31.1 1008.8 8.5 WSW 16.9 W 0.0 0.0
01:30 20.1 34.8 1008.7 2.2 WSW 11.5 W 0.0 0.0
01:35 19.0 36.4 1008.8 1.8 NE 6.1 NE 0.0 0.0
01:40 18.3 36.4 1008.9 1.5 N 6.1 NNE 0.0 0.0
01:45 17.9 37.8 1008.8 1.3 NNW 6.1 N 0.0 0.0
01:50 17.6 40.1 1008.9 2.7 S 6.1 S 0.0 0.0
01:55 17.2 41.7 1008.8 2.4 SSW 6.1 SSE 0.0 0.0
02:00 17.0 43.7 1008.7 2.4 SSW 6.1 SW 0.0 0.0
02:05 16.7 44.7 1008.7 4.1 WSW 6.1 SW 0.0 0.0
02:10 16.6 45.5 1008.7 3.3 SW 6.1 SW 0.0 0.0
02:15 16.5 45.4 1008.6 4.9 WSW 8.8 WSW 0.0 0.0
02:20 16.5 45.0 1008.4 4.9 WSW 8.8 SW 0.0 0.0
02:25 16.5 44.6 1008.3 2.0 WSW 6.1 SW 0.0 0.0
02:30 16.4 45.1 1008.2 3.0 WSW 6.1 SW 0.0 0.0
02:35 16.3 45.2 1008.1 2.3 SW 6.1 WSW 0.0 0.0
02:40 16.2 45.3 1008.1 0.3 NNW 6.1 NNW 0.0 0.0
02:45 16.1 46.2 1008.0 0.0 NNE 0.0 N 0.0 0.0
02:50 15.9 46.3 1007.9 2.0 WSW 6.1 WSW 0.0 0.0
Màxima 20.6 46.3 1009.6 8.5 WSW 16.9 W 0.0 0.0
Mínima 15.8 31.1 1007.9
Total 0.0